Time;durP1;ratioP1;P1;durP2;ratioP2;P2;SDS_P1;SDS_P2;PMS_P1;PMS_P2;Temp;Humidity;BMP_temperature;BMP_pressure;BME280_temperature;BME280_humidity;BME280_pressure;Samples;Min_cycle;Max_cycle;Signal;HPM_P1;HPM_P2
2021/05/15 00:02:01;;;;;;;;;;;;;;;13.01;61.01;99293.03;4373533;32;34794;-74
2021/05/15 00:04:28;;;;;;;;;;;;;;;12.98;61.09;99292.53;4372715;32;35319;-74
2021/05/15 00:06:54;;;;;;;;;;;;;;;12.99;60.90;99296.88;4385581;32;35199;-74
2021/05/15 00:09:20;;;;;;;;;;;;;;;12.96;60.76;99292.69;4375261;32;33689;-75
2021/05/15 00:11:48;;;;;;;;;;;;;;;12.96;60.50;99294.56;4370868;32;33552;-74
2021/05/15 00:14:14;;;;;;;;;;;;;;;12.97;60.18;99296.22;4371639;32;35469;-74
2021/05/15 00:16:40;;;;;;;;;;;;;;;12.95;60.21;99301.72;4387773;32;35318;-74
2021/05/15 00:19:07;;;;;;;;;;;;;;;12.89;60.60;99299.72;4385156;32;33534;-74
2021/05/15 00:21:33;;;;;;;;;;;;;;;12.88;60.35;99300.72;4395992;32;34007;-74
2021/05/15 00:23:59;;;;;;;;;;;;;;;12.88;60.40;99299.87;4386808;32;34900;-74
2021/05/15 00:26:27;;;;;;;;;;;;;;;12.86;60.88;99299.22;4376945;32;33451;-74
2021/05/15 00:28:53;;;;;;;;;;;;;;;12.51;61.91;99296.94;4371875;32;32034;-74
2021/05/15 00:31:19;;;;;;;;;;;;;;;12.61;61.66;99295.78;4370354;32;33361;-74
2021/05/15 00:33:46;;;;;;;;;;;;;;;12.29;63.55;99300.31;4369175;32;34994;-74
2021/05/15 00:36:12;;;;;;;;;;;;;;;12.38;63.19;99294.78;4399393;32;33917;-74
2021/05/15 00:38:39;;;;;;;;;;;;;;;12.51;62.48;99289.78;4357408;32;32298;-74
2021/05/15 00:41:05;;;;;;;;;;;;;;;12.53;62.26;99286.94;4369936;32;33402;-74
2021/05/15 00:43:32;;;;;;;;;;;;;;;12.49;62.22;99282.94;4381997;32;35918;-74
2021/05/15 00:45:58;;;;;;;;;;;;;;;12.55;61.76;99285.75;4357733;32;33223;-74
2021/05/15 00:48:25;;;;;;;;;;;;;;;12.55;61.56;99293.78;4374269;32;33140;-74
2021/05/15 00:50:53;;;;;;;;;;;;;;;12.50;61.71;99308.63;4371195;32;34245;-74
2021/05/15 00:53:19;;;;;;;;;;;;;;;12.15;63.46;99299.13;4371717;32;36355;-74
2021/05/15 00:55:46;;;;;;;;;;;;;;;12.09;63.33;99304.28;4374123;32;35350;-74
2021/05/15 00:58:12;;;;;;;;;;;;;;;11.99;64.07;99308.97;4382389;32;32604;-74
2021/05/15 01:00:38;;;;;;;;;;;;;;;12.14;63.40;99305.47;4370202;32;33895;-74
2021/05/15 01:03:05;;;;;;;;;;;;;;;11.72;64.83;99301.25;4388694;32;35602;-74
2021/05/15 01:05:31;;;;;;;;;;;;;;;12.12;63.64;99296.78;4369414;32;33132;-74
2021/05/15 01:07:58;;;;;;;;;;;;;;;12.18;63.26;99300.63;4384419;32;33152;-74
2021/05/15 01:10:24;;;;;;;;;;;;;;;12.24;62.68;99299.94;4395049;32;33735;-74
2021/05/15 01:12:52;;;;;;;;;;;;;;;12.03;63.25;99307.63;4372407;32;36107;-74
2021/05/15 01:15:19;;;;;;;;;;;;;;;12.29;62.29;99305.63;4370433;32;34422;-74
2021/05/15 01:17:54;;;;;;;;;;;;;;;12.37;61.89;99306.44;4369640;32;31753;-74
2021/05/15 01:20:23;;;;;;;;;;;;;;;12.37;61.88;99294.97;4383346;32;34540;-74
2021/05/15 01:22:51;;;;;;;;;;;;;;;12.26;nan;99298.78;4371788;32;35980;-74
2021/05/15 01:25:18;;;;;;;;;;;;;;;12.34;62.15;99287.28;4373045;32;35464;-74
2021/05/15 01:27:44;;;;;;;;;;;;;;;12.22;62.46;99288.62;4379287;32;32342;-74
2021/05/15 01:30:11;;;;;;;;;;;;;;;12.22;62.30;99285.97;4389849;32;33898;-74
2021/05/15 01:32:39;;;;;;;;;;;;;;;12.32;61.44;99292.81;4371245;32;34798;-74
2021/05/15 01:35:06;;;;;;;;;;;;;;;12.25;61.77;99297.13;4371673;32;34188;-74
2021/05/15 01:37:32;;;;;;;;;;;;;;;12.13;62.26;99293.13;4371940;32;32202;-74
2021/05/15 01:39:59;;;;;;;;;;;;;;;12.13;61.59;99292.28;4372115;32;33468;-75
2021/05/15 01:42:25;;;;;;;;;;;;;;;12.13;61.06;99294.97;4371445;32;33928;-74
2021/05/15 01:44:51;;;;;;;;;;;;;;;12.06;61.32;99299.28;4385620;32;34088;-74
2021/05/15 01:47:17;;;;;;;;;;;;;;;12.14;61.02;99297.47;4387379;32;32050;-74
2021/05/15 01:49:46;;;;;;;;;;;;;;;12.20;60.96;99298.63;4359182;32;32685;-74
2021/05/15 01:52:12;;;;;;;;;;;;;;;12.17;61.03;99288.28;4373200;32;34106;-74
2021/05/15 01:54:38;;;;;;;;;;;;;;;12.15;61.17;99284.94;4386438;32;34670;-74
2021/05/15 01:57:05;;;;;;;;;;;;;;;12.18;61.23;99289.97;4371773;32;32695;-74
2021/05/15 01:59:31;;;;;;;;;;;;;;;12.11;61.58;99283.63;4359315;32;32793;-74
2021/05/15 02:01:57;;;;;;;;;;;;;;;11.89;62.20;99289.59;4385507;32;35313;-75
2021/05/15 02:04:24;;;;;;;;;;;;;;;12.00;62.27;99291.97;4363749;32;33324;-74
2021/05/15 02:06:51;;;;;;;;;;;;;;;11.96;62.80;99293.28;4371259;32;33419;-74
2021/05/15 02:09:17;;;;;;;;;;;;;;;11.97;62.35;99284.28;4396636;32;33270;-74
2021/05/15 02:11:43;;;;;;;;;;;;;;;11.97;62.03;99286.94;4396963;32;34598;-75
2021/05/15 02:14:09;;;;;;;;;;;;;;;11.78;62.87;99276.59;4385330;32;34259;-74
2021/05/15 02:16:36;;;;;;;;;;;;;;;11.97;62.27;99278.94;4377177;32;31578;-75
2021/05/15 02:19:02;;;;;;;;;;;;;;;11.91;62.50;99279.63;4371908;32;33587;-75
2021/05/15 02:21:28;;;;;;;;;;;;;;;11.96;61.94;99282.59;4377878;32;33871;-74
2021/05/15 02:23:55;;;;;;;;;;;;;;;12.00;61.24;99279.44;4397604;32;34301;-75
2021/05/15 02:26:22;;;;;;;;;;;;;;;11.90;61.48;99273.44;4388395;32;32799;-74
2021/05/15 02:28:48;;;;;;;;;;;;;;;11.58;62.34;99275.22;4386239;32;34501;-74
2021/05/15 02:31:15;;;;;;;;;;;;;;;11.73;61.62;99269.09;4374579;32;34261;-74
2021/05/15 02:33:41;;;;;;;;;;;;;;;11.77;61.30;99270.44;4372909;32;35004;-74
2021/05/15 02:36:07;;;;;;;;;;;;;;;11.71;61.73;99272.94;4387957;32;32744;-75
2021/05/15 02:38:34;;;;;;;;;;;;;;;11.68;61.98;99274.09;4371769;32;34149;-74
2021/05/15 02:41:00;;;;;;;;;;;;;;;11.74;61.69;99273.41;4371269;32;35116;-74
2021/05/15 02:43:26;;;;;;;;;;;;;;;11.51;62.15;99279.50;4358772;32;34287;-74
2021/05/15 02:45:54;;;;;;;;;;;;;;;11.38;62.86;99272.00;4385437;32;33212;-74
2021/05/15 02:48:20;;;;;;;;;;;;;;;11.41;63.08;99284.13;4371746;32;33457;-74
2021/05/15 02:50:47;;;;;;;;;;;;;;;11.23;64.14;99293.22;4385527;32;35503;-74
2021/05/15 02:53:14;;;;;;;;;;;;;;;11.58;62.86;99291.19;4372514;32;35094;-74
2021/05/15 02:55:40;;;;;;;;;;;;;;;11.54;63.15;99290.66;4375783;32;32570;-74
2021/05/15 02:58:07;;;;;;;;;;;;;;;11.58;63.11;99288.53;4371840;32;33931;-74
2021/05/15 03:00:33;;;;;;;;;;;;;;;11.56;63.14;99286.00;4371407;32;34621;-74
2021/05/15 03:03:00;;;;;;;;;;;;;;;11.44;63.67;99297.13;4372535;32;34332;-74
2021/05/15 03:05:28;;;;;;;;;;;;;;;11.39;64.29;99297.63;4386346;32;32890;-74
2021/05/15 03:07:54;;;;;;;;;;;;;;;11.63;63.22;99294.22;4371192;32;34150;-74
2021/05/15 03:10:23;;;;;;;;;;;;;;;11.61;63.08;99294.38;4370707;32;35609;-74
2021/05/15 03:12:50;;;;;;;;;;;;;;;11.67;62.48;99292.87;4371564;32;34031;-75
2021/05/15 03:15:18;;;;;;;;;;;;;;;10.93;64.28;99297.22;4377809;32;34051;-74
2021/05/15 03:17:44;;;;;;;;;;;;;;;11.47;62.44;99294.13;4370929;32;33501;-75
2021/05/15 03:20:13;;;;;;;;;;;;;;;11.67;61.79;99290.22;4371033;32;34902;-74
2021/05/15 03:22:40;;;;;;;;;;;;;;;11.67;61.72;99290.22;4370899;32;35001;-75
2021/05/15 03:25:06;;;;;;;;;;;;;;;11.72;61.22;99296.72;4356823;32;801289;-75
2021/05/15 03:27:33;;;;;;;;;;;;;;;11.67;61.31;99296.41;4381693;32;33866;-74
2021/05/15 03:29:59;;;;;;;;;;;;;;;11.61;61.51;99297.03;4387026;32;35372;-74
2021/05/15 03:32:25;;;;;;;;;;;;;;;11.63;61.58;99302.22;4386909;32;35078;-74
2021/05/15 03:34:52;;;;;;;;;;;;;;;11.61;61.73;99304.19;4372682;32;33089;-74
2021/05/15 03:37:21;;;;;;;;;;;;;;;11.64;61.79;99302.03;4397362;32;34274;-74
2021/05/15 03:39:48;;;;;;;;;;;;;;;11.63;62.02;99305.69;4385039;32;34626;-74
2021/05/15 03:42:15;;;;;;;;;;;;;;;11.69;62.08;99304.22;4375520;32;34668;-74
2021/05/15 03:44:42;;;;;;;;;;;;;;;11.72;62.09;99302.06;4372474;32;31846;-74
2021/05/15 03:47:13;;;;;;;;;;;;;;;11.72;62.17;99298.56;4385876;32;34952;-75
2021/05/15 03:49:39;;;;;;;;;;;;;;;11.70;62.56;99298.72;4383376;32;36042;-74
2021/05/15 03:52:06;;;;;;;;;;;;;;;11.78;62.57;99296.09;4384625;32;33906;-74
2021/05/15 03:54:32;;;;;;;;;;;;;;;11.85;62.42;99298.91;4370498;32;33208;-74
2021/05/15 03:56:59;;;;;;;;;;;;;;;11.73;62.98;99292.25;4384781;32;34463;-74
2021/05/15 03:59:26;;;;;;;;;;;;;;;11.83;62.87;99295.59;4384593;32;35691;-75
2021/05/15 04:01:52;;;;;;;;;;;;;;;11.40;64.55;99301.94;4377629;32;34730;-74
2021/05/15 04:04:19;;;;;;;;;;;;;;;11.48;64.94;99299.31;4384952;32;33220;-74
2021/05/15 04:06:45;;;;;;;;;;;;;;;11.75;63.93;99301.72;4389317;32;33241;-74
2021/05/15 04:09:11;;;;;;;;;;;;;;;11.92;63.57;99302.59;4371122;32;33643;-74
2021/05/15 04:11:39;;;;;;;;;;;;;;;11.84;64.14;99314.06;4389359;32;34710;-74
2021/05/15 04:14:34;;;;;;;;;;;;;;;11.96;63.98;99302.13;4375379;32;32384;-74
2021/05/15 04:17:13;;;;;;;;;;;;;;;12.14;63.67;99308.13;4373189;32;32546;-74
2021/05/15 04:19:39;;;;;;;;;;;;;;;12.26;63.49;99312.12;4373410;32;35463;-74
2021/05/15 04:22:06;;;;;;;;;;;;;;;12.34;63.59;99305.94;4372014;32;34481;-75
2021/05/15 04:24:32;;;;;;;;;;;;;;;12.35;63.97;99312.94;4373166;32;32054;-74
2021/05/15 04:27:00;;;;;;;;;;;;;;;12.46;63.81;99323.31;4371409;32;33863;-74
2021/05/15 04:29:27;;;;;;;;;;;;;;;12.53;63.88;99317.13;4371180;32;35204;-74
2021/05/15 04:31:56;;;;;;;;;;;;;;;12.53;64.35;99325.13;4371484;32;33962;-74
2021/05/15 04:34:22;;;;;;;;;;;;;;;12.66;64.19;99317.44;4372805;32;33163;-74
2021/05/15 04:36:49;;;;;;;;;;;;;;;12.70;64.50;99316.09;4370286;32;33699;-74
2021/05/15 04:39:16;;;;;;;;;;;;;;;12.72;64.81;99314.09;4385230;32;34481;-74
2021/05/15 04:41:42;;;;;;;;;;;;;;;12.94;64.43;99313.41;4370290;32;33373;-74
2021/05/15 04:44:09;;;;;;;;;;;;;;;12.96;64.94;99310.56;4387798;32;31994;-75
2021/05/15 04:46:35;;;;;;;;;;;;;;;13.21;64.24;99301.50;4370536;32;33678;-74
2021/05/15 04:49:01;;;;;;;;;;;;;;;13.28;64.12;99305.97;4370388;32;36014;-74
2021/05/15 04:51:28;;;;;;;;;;;;;;;13.50;63.42;99310.53;4369149;32;33186;-75
2021/05/15 04:53:54;;;;;;;;;;;;;;;13.33;64.16;99314.28;4372026;32;33163;-74
2021/05/15 04:56:21;;;;;;;;;;;;;;;13.61;63.49;99314.66;4384533;32;33445;-74
2021/05/15 04:58:48;;;;;;;;;;;;;;;13.65;63.46;99311.47;4373800;32;34821;-74
2021/05/15 05:01:14;;;;;;;;;;;;;;;13.70;63.46;99306.41;4372217;32;33327;-74
2021/05/15 05:03:40;;;;;;;;;;;;;;;13.91;62.92;99306.66;4387115;32;33247;-74
2021/05/15 05:06:07;;;;;;;;;;;;;;;13.88;63.53;99306.97;4372437;32;34447;-74
2021/05/15 05:08:33;;;;;;;;;;;;;;;13.99;63.10;99303.06;4373248;32;34967;-74
2021/05/15 05:10:59;;;;;;;;;;;;;;;14.03;63.37;99310.56;4349965;32;34750;-74
2021/05/15 05:13:26;;;;;;;;;;;;;;;13.90;64.17;99312.16;4373040;32;33432;-74
2021/05/15 05:15:52;;;;;;;;;;;;;;;14.08;62.98;99313.56;4373689;32;34043;-74
2021/05/15 05:18:18;;;;;;;;;;;;;;;14.00;63.70;99318.09;4371762;32;34247;-74
2021/05/15 05:20:45;;;;;;;;;;;;;;;14.17;63.65;99327.69;4371875;32;35168;-74
2021/05/15 05:23:11;;;;;;;;;;;;;;;14.12;64.66;99316.69;4388226;32;32888;-74
2021/05/15 05:25:38;;;;;;;;;;;;;;;14.32;64.67;99316.06;4385948;32;33384;-74
2021/05/15 05:28:04;;;;;;;;;;;;;;;14.47;64.21;99316.94;4372149;32;34974;-74
2021/05/15 05:30:32;;;;;;;;;;;;;;;14.72;64.13;99326.41;4372140;32;35156;-74
2021/05/15 05:32:59;;;;;;;;;;;;;;;14.77;64.65;99316.00;4386159;32;32324;-74
2021/05/15 05:35:26;;;;;;;;;;;;;;;15.09;63.71;99327.22;4372294;32;34070;-74
2021/05/15 05:37:53;;;;;;;;;;;;;;;15.39;62.54;99333.44;4373052;32;33838;-74
2021/05/15 05:40:19;;;;;;;;;;;;;;;15.48;62.01;99330.47;4373971;32;34579;-74
2021/05/15 05:42:46;;;;;;;;;;;;;;;15.68;61.75;99331.53;4373517;32;33162;-74
2021/05/15 05:45:14;;;;;;;;;;;;;;;15.19;64.60;99330.44;4386640;32;33877;-74
2021/05/15 05:47:41;;;;;;;;;;;;;;;15.47;64.75;99333.31;4372423;32;35124;-74
2021/05/15 05:50:08;;;;;;;;;;;;;;;16.01;63.35;99329.25;4391756;32;34681;-75
2021/05/15 05:52:34;;;;;;;;;;;;;;;16.05;63.57;99333.22;4374040;32;33222;-75
2021/05/15 05:55:01;;;;;;;;;;;;;;;16.03;62.50;99333.41;4391991;32;34705;-75
2021/05/15 05:57:28;;;;;;;;;;;;;;;16.34;61.48;99333.13;4373949;32;35235;-75
2021/05/15 05:59:54;;;;;;;;;;;;;;;16.11;62.28;99337.81;4392077;32;35025;-74
2021/05/15 06:02:21;;;;;;;;;;;;;;;16.57;60.65;99329.25;4365994;32;33255;-74
2021/05/15 06:04:47;;;;;;;;;;;;;;;16.13;61.17;99328.56;4386548;32;33857;-74
2021/05/15 06:07:14;;;;;;;;;;;;;;;16.41;61.23;99332.19;4385972;32;34559;-74
2021/05/15 06:09:40;;;;;;;;;;;;;;;16.88;60.08;99329.69;4372676;32;33903;-74
2021/05/15 06:12:10;;;;;;;;;;;;;;;17.04;59.74;99331.25;4371748;32;33215;-74
2021/05/15 06:14:37;;;;;;;;;;;;;;;17.32;58.61;99334.75;4374241;32;34314;-74
2021/05/15 06:17:03;;;;;;;;;;;;;;;17.49;58.30;99335.09;4388924;32;34405;-74
2021/05/15 06:19:30;;;;;;;;;;;;;;;17.41;59.02;99331.75;4373327;32;34396;-75
2021/05/15 06:21:57;;;;;;;;;;;;;;;17.46;58.00;99333.84;4371021;32;31950;-74
2021/05/15 06:24:25;;;;;;;;;;;;;;;17.72;57.33;99334.78;4387323;32;35146;-74
2021/05/15 06:26:51;;;;;;;;;;;;;;;18.14;55.77;99331.84;4372705;32;33039;-74
2021/05/15 06:29:17;;;;;;;;;;;;;;;17.92;56.86;99325.75;4372585;32;34409;-74
2021/05/15 06:31:43;;;;;;;;;;;;;;;18.31;54.55;99325.88;4348753;32;34094;-74
2021/05/15 06:34:10;;;;;;;;;;;;;;;18.38;53.59;99324.03;4374271;32;34017;-75
2021/05/15 06:36:37;;;;;;;;;;;;;;;18.59;53.65;99325.72;4361426;32;33771;-74
2021/05/15 06:39:04;;;;;;;;;;;;;;;18.70;54.56;99319.72;4373030;32;33885;-77
2021/05/15 06:41:31;;;;;;;;;;;;;;;18.37;53.58;99326.94;4372753;32;32428;-74
2021/05/15 06:43:57;;;;;;;;;;;;;;;18.59;53.79;99320.34;4389371;32;32617;-74
2021/05/15 06:46:23;;;;;;;;;;;;;;;18.74;52.62;99323.63;4371574;32;35837;-75
2021/05/15 06:48:50;;;;;;;;;;;;;;;18.87;52.11;99323.66;4358980;32;34573;-74
2021/05/15 06:51:16;;;;;;;;;;;;;;;19.01;52.38;99325.28;4385184;32;33151;-74
2021/05/15 06:53:43;;;;;;;;;;;;;;;19.05;52.16;99321.97;4371127;32;33221;-74
2021/05/15 06:56:09;;;;;;;;;;;;;;;19.14;51.69;99317.16;4368941;32;35633;-74
2021/05/15 06:58:36;;;;;;;;;;;;;;;19.24;50.88;99318.44;4391009;32;34603;-74
2021/05/15 07:01:03;;;;;;;;;;;;;;;19.56;50.96;99316.69;4386616;32;31342;-75
2021/05/15 07:03:29;;;;;;;;;;;;;;;19.65;50.90;99320.81;4376175;32;35377;-74
2021/05/15 07:05:56;;;;;;;;;;;;;;;19.39;49.67;99320.91;4370842;32;33886;-74
2021/05/15 07:08:23;;;;;;;;;;;;;;;19.89;48.36;99320.91;4367717;32;34066;-74
2021/05/15 07:10:51;;;;;;;;;;;;;;;19.90;50.05;99324.47;4372422;32;34454;-74
2021/05/15 07:13:18;;;;;;;;;;;;;;;19.75;49.00;99316.63;4380832;32;32810;-75
2021/05/15 07:15:44;;;;;;;;;;;;;;;19.88;49.38;99324.66;4367182;32;34409;-75
2021/05/15 07:18:10;;;;;;;;;;;;;;;19.83;46.94;99321.75;4386091;32;34575;-74
2021/05/15 07:20:37;;;;;;;;;;;;;;;19.64;48.77;99324.56;4372261;32;32913;-74
2021/05/15 07:23:07;;;;;;;;;;;;;;;20.18;48.19;99320.38;4347038;32;32704;-75
2021/05/15 07:25:34;;;;;;;;;;;;;;;20.22;47.51;99326.19;4386439;32;34550;-75
2021/05/15 07:28:00;;;;;;;;;;;;;;;19.96;46.63;99319.03;4373562;32;33623;-74
2021/05/15 07:30:26;;;;;;;;;;;;;;;20.37;46.81;99327.53;4361624;32;32989;-74
2021/05/15 07:32:53;;;;;;;;;;;;;;;20.57;46.51;99328.22;4372121;32;34815;-75
2021/05/15 07:35:19;;;;;;;;;;;;;;;20.43;46.40;99331.22;4371532;32;34387;-74
2021/05/15 07:37:45;;;;;;;;;;;;;;;20.83;45.71;99331.56;4358826;32;33332;-75
2021/05/15 07:40:12;;;;;;;;;;;;;;;20.76;46.92;99336.19;4371158;32;31920;-74
2021/05/15 07:42:39;;;;;;;;;;;;;;;20.85;45.01;99331.31;4352291;32;33724;-74
2021/05/15 07:45:05;;;;;;;;;;;;;;;21.02;45.05;99332.47;4372843;32;34774;-73
2021/05/15 07:47:32;;;;;;;;;;;;;;;20.83;44.93;99336.97;4370109;32;35019;-73
2021/05/15 07:49:58;;;;;;;;;;;;;;;20.62;45.03;99336.50;4387506;32;34754;-72
2021/05/15 07:52:27;;;;;;;;;;;;;;;20.55;44.82;99343.03;4369672;32;34679;-74
2021/05/15 07:54:54;;;;;;;;;;;;;;;20.85;44.80;99339.44;4371301;32;33845;-74
2021/05/15 07:57:20;;;;;;;;;;;;;;;20.77;43.46;99340.53;4386935;32;34477;-74
2021/05/15 07:59:46;;;;;;;;;;;;;;;20.77;43.93;99337.84;4371478;32;32645;-75
2021/05/15 08:02:14;;;;;;;;;;;;;;;20.85;44.04;99334.91;4348869;32;33180;-74
2021/05/15 08:04:40;;;;;;;;;;;;;;;20.81;40.88;99332.81;4371504;32;37419;-74
2021/05/15 08:07:07;;;;;;;;;;;;;;;21.04;42.79;99327.66;4369799;32;33873;-74
2021/05/15 08:09:33;;;;;;;;;;;;;;;21.23;42.30;99318.50;4376956;32;33367;-74
2021/05/15 08:12:00;;;;;;;;;;;;;;;20.88;44.14;99323.63;4378044;32;33461;-74
2021/05/15 08:14:26;;;;;;;;;;;;;;;20.55;43.55;99327.63;4375240;32;37130;-74
2021/05/15 08:16:53;;;;;;;;;;;;;;;20.68;42.98;99331.06;4385420;32;33960;-74
2021/05/15 08:19:19;;;;;;;;;;;;;;;20.83;43.55;99328.03;4386224;32;32989;-74
2021/05/15 08:21:48;;;;;;;;;;;;;;;21.22;43.81;99325.81;4374733;32;34008;-74
2021/05/15 08:24:14;;;;;;;;;;;;;;;20.95;44.63;99334.38;4384218;32;34682;-75
2021/05/15 08:26:41;;;;;;;;;;;;;;;21.33;43.09;99335.91;4386659;32;34653;-74
2021/05/15 08:29:11;;;;;;;;;;;;;;;21.14;44.73;99330.69;4383822;32;31872;-74
2021/05/15 08:31:40;;;;;;;;;;;;;;;21.35;43.99;99335.69;4374312;32;34082;-74
2021/05/15 08:34:06;;;;;;;;;;;;;;;21.78;41.63;99323.78;4374377;32;34862;-74
2021/05/15 08:36:33;;;;;;;;;;;;;;;21.36;43.92;99327.31;4375500;32;33846;-74
2021/05/15 08:38:59;;;;;;;;;;;;;;;21.33;42.28;99327.78;4374879;32;33831;-74
2021/05/15 08:41:26;;;;;;;;;;;;;;;21.47;43.02;99328.47;4377655;32;33828;-74
2021/05/15 08:43:53;;;;;;;;;;;;;;;21.57;42.57;99328.78;4373784;32;35650;-75
2021/05/15 08:46:19;;;;;;;;;;;;;;;;;;4402531;32;35010;-75
2021/05/15 08:48:45;;;;;;;;;;;;;;;21.98;41.01;99326.22;4374081;32;31991;-75
2021/05/15 08:51:11;;;;;;;;;;;;;;;22.22;40.57;99326.12;4375433;32;34729;-75
2021/05/15 08:53:39;;;;;;;;;;;;;;;21.67;42.40;99315.56;4376192;32;35164;-75
2021/05/15 08:56:09;;;;;;;;;;;;;;;21.11;44.64;99321.16;4376301;32;33690;-75
2021/05/15 08:58:36;;;;;;;;;;;;;;;22.31;42.20;99321.19;4377007;32;32897;-75
2021/05/15 09:01:02;;;;;;;;;;;;;;;20.67;44.96;99313.19;4391318;32;33037;-75
2021/05/15 09:03:29;;;;;;;;;;;;;;;21.68;43.36;99312.66;4352136;32;33874;-75
2021/05/15 09:05:57;;;;;;;;;;;;;;;22.00;42.27;99307.87;4376067;32;33965;-75
2021/05/15 09:08:25;;;;;;;;;;;;;;;22.61;39.71;99308.44;4376081;32;32052;-75
2021/05/15 09:10:53;;;;;;;;;;;;;;;21.69;40.74;99308.03;4376580;32;33622;-74
2021/05/15 09:13:25;;;;;;;;;;;;;;;22.74;39.24;99305.53;4379547;32;35849;-74
2021/05/15 09:15:57;;;;;;;;;;;;;;;23.29;39.11;99307.72;4388722;32;34324;-75
2021/05/15 09:18:29;;;;;;;;;;;;;;;22.27;40.53;99307.25;4350335;32;33604;-74
2021/05/15 09:20:58;;;;;;;;;;;;;;;22.70;42.03;99299.75;4389575;32;33265;-75
2021/05/15 09:23:27;;;;;;;;;;;;;;;23.39;37.97;99297.06;4388708;32;35052;-74
2021/05/15 09:26:08;;;;;;;;;;;;;;;22.17;35.62;99296.16;4374985;32;34182;-74
2021/05/15 09:28:37;;;;;;;;;;;;;;;22.22;37.97;99301.72;4376591;32;33617;-74
2021/05/15 09:31:12;;;;;;;;;;;;;;;22.50;39.64;99292.97;4374922;32;33960;-74
2021/05/15 09:33:41;;;;;;;;;;;;;;;23.08;38.20;99292.00;4374407;32;34572;-74
2021/05/15 09:36:12;;;;;;;;;;;;;;;22.20;37.35;99295.69;4374690;32;33889;-74
2021/05/15 09:39:00;;;;;;;;;;;;;;;23.24;37.55;99299.47;4388450;32;32654;-75
2021/05/15 09:41:38;;;;;;;;;;;;;;;23.74;37.06;99300.56;4374683;32;33733;-75
2021/05/15 09:44:07;;;;;;;;;;;;;;;23.78;35.28;99301.72;4375583;32;34932;-75
2021/05/15 09:46:35;;;;;;;;;;;;;;;24.16;35.33;99291.09;4383578;32;33264;-74
2021/05/15 09:49:03;;;;;;;;;;;;;;;24.40;34.46;99292.63;4373018;32;32668;-75
2021/05/15 09:51:31;;;;;;;;;;;;;;;23.99;34.10;99296.47;4385412;32;34096;-75
2021/05/15 09:54:12;;;;;;;;;;;;;;;24.48;34.68;99287.59;4374790;32;35780;-75
2021/05/15 09:56:40;;;;;;;;;;;;;;;24.09;36.67;99285.81;4385933;32;34112;-74
2021/05/15 09:59:07;;;;;;;;;;;;;;;24.42;35.64;99290.50;4373797;32;33970;-74
2021/05/15 10:01:39;;;;;;;;;;;;;;;24.50;33.60;99295.53;4372227;32;33563;-74
2021/05/15 10:04:08;;;;;;;;;;;;;;;24.01;33.54;99291.63;4372525;32;34588;-75
2021/05/15 10:06:35;;;;;;;;;;;;;;;24.75;34.89;99279.69;4371431;32;33078;-75
2021/05/15 10:09:03;;;;;;;;;;;;;;;24.95;34.12;99278.13;4371891;32;32918;-76
2021/05/15 10:11:31;;;;;;;;;;;;;;;23.40;33.87;99281.62;4386290;32;33351;-75
2021/05/15 10:13:59;;;;;;;;;;;;;;;23.62;35.41;99290.78;4373400;32;35207;-75
2021/05/15 10:16:27;;;;;;;;;;;;;;;24.61;35.27;99290.06;4373819;32;34902;-75
2021/05/15 10:18:54;;;;;;;;;;;;;;;24.05;33.96;99281.09;4371745;32;33244;-75
2021/05/15 10:21:22;;;;;;;;;;;;;;;24.40;34.15;99273.59;4373437;32;33921;-74
2021/05/15 10:23:49;;;;;;;;;;;;;;;23.96;36.85;99283.38;4387138;32;35183;-75
2021/05/15 10:26:19;;;;;;;;;;;;;;;23.30;36.50;99276.78;4371487;32;34552;-75
2021/05/15 10:29:00;;;;;;;;;;;;;;;21.93;38.28;99275.47;4396547;32;33755;-75
2021/05/15 10:31:35;;;;;;;;;;;;;;;23.25;38.22;99278.56;4372677;32;35065;-75
2021/05/15 10:34:03;;;;;;;;;;;;;;;24.01;34.99;99279.94;4377956;32;35021;-75
2021/05/15 10:36:31;;;;;;;;;;;;;;;24.62;34.63;99275.38;4392903;32;35284;-75
2021/05/15 10:39:04;;;;;;;;;;;;;;;24.78;35.53;99276.47;4390493;32;32889;-75
2021/05/15 10:41:32;;;;;;;;;;;;;;;25.19;33.96;99267.84;4371908;32;34039;-76
2021/05/15 10:44:09;;;;;;;;;;;;;;;24.87;31.50;99264.94;4377148;32;35016;-75
2021/05/15 10:46:43;;;;;;;;;;;;;;;23.50;32.40;99266.34;4385546;32;34785;-75
2021/05/15 10:49:22;;;;;;;;;;;;;;;23.73;32.25;99267.13;4383332;32;31951;-76
2021/05/15 10:51:51;;;;;;;;;;;;;;;23.66;32.55;99265.62;4376170;32;34053;-76
2021/05/15 10:54:50;;;;;;;;;;;;;;;23.72;32.05;99261.94;4346822;32;34372;-76
2021/05/15 10:57:22;;;;;;;;;;;;;;;23.24;32.00;99253.31;4368100;32;34516;-76
2021/05/15 10:59:57;;;;;;;;;;;;;;;23.68;32.63;99263.47;4385556;32;32897;-75
2021/05/15 11:02:32;;;;;;;;;;;;;;;24.09;32.21;99257.81;4375989;32;33250;-75
2021/05/15 11:05:03;;;;;;;;;;;;;;;25.00;32.36;99245.50;4371586;32;33677;-75
2021/05/15 11:07:32;;;;;;;;;;;;;;;25.07;30.76;99248.91;4373165;32;35386;-75
2021/05/15 11:10:11;;;;;;;;;;;;;;;24.67;28.60;99247.44;4391548;32;32894;-76
2021/05/15 11:12:40;;;;;;;;;;;;;;;25.31;28.49;99244.91;4371098;32;34481;-75
2021/05/15 11:15:12;;;;;;;;;;;;;;;24.78;31.79;99241.94;4384167;32;35850;-75
2021/05/15 11:17:40;;;;;;;;;;;;;;;25.97;30.19;99238.37;4371208;32;35067;-75
2021/05/15 11:20:07;;;;;;;;;;;;;;;26.18;29.04;99227.44;4346466;32;32172;-75
2021/05/15 11:22:45;;;;;;;;;;;;;;;26.44;28.39;99220.31;4371493;32;33526;-75
2021/05/15 11:25:13;;;;;;;;;;;;;;;26.61;29.50;99226.50;4371353;32;34478;-75
2021/05/15 11:27:44;;;;;;;;;;;;;;;26.53;27.73;99214.13;4385184;32;34508;-75
2021/05/15 11:30:16;;;;;;;;;;;;;;;27.63;27.53;99214.84;4371030;32;32879;-75
2021/05/15 11:33:04;;;;;;;;;;;;;;;26.64;26.22;99210.44;4384750;32;33290;-76
2021/05/15 11:35:35;;;;;;;;;;;;;;;26.44;27.35;99212.97;4389972;32;34029;-75
2021/05/15 11:38:07;;;;;;;;;;;;;;;26.68;25.58;99208.00;4382921;32;34223;-75
2021/05/15 11:40:36;;;;;;;;;;;;;;;25.57;28.13;99214.19;4377771;32;32518;-76
2021/05/15 11:43:05;;;;;;;;;;;;;;;24.98;28.69;99208.72;4386912;32;33894;-76
2021/05/15 11:45:34;;;;;;;;;;;;;;;25.36;27.59;99209.56;4372675;32;35306;-75
2021/05/15 11:48:04;;;;;;;;;;;;;;;25.71;27.90;99201.00;4389409;32;34336;-75
2021/05/15 11:50:32;;;;;;;;;;;;;;;26.32;28.54;99197.84;4384492;32;33445;-76
2021/05/15 11:53:02;;;;;;;;;;;;;;;25.23;27.62;99200.97;4384691;32;33408;-76
2021/05/15 11:55:29;;;;;;;;;;;;;;;26.12;30.03;99195.75;4374764;32;34748;-76
2021/05/15 11:57:58;;;;;;;;;;;;;;;26.82;25.68;99199.09;4371146;32;34835;-75
2021/05/15 12:00:28;;;;;;;;;;;;;;;27.44;25.44;99197.25;4373467;32;33092;-76
2021/05/15 12:02:56;;;;;;;;;;;;;;;27.86;26.80;99181.59;4384758;32;33930;-76
2021/05/15 12:05:23;;;;;;;;;;;;;;;28.20;26.84;99175.34;4372455;32;35012;-76
2021/05/15 12:07:51;;;;;;;;;;;;;;;26.13;28.26;99182.94;4388526;32;34842;-77
2021/05/15 12:10:20;;;;;;;;;;;;;;;25.35;30.13;99180.69;4371901;32;33625;-76
2021/05/15 12:12:55;;;;;;;;;;;;;;;25.21;30.17;99184.06;4370474;32;34794;-76
2021/05/15 12:15:23;;;;;;;;;;;;;;;24.76;31.17;99184.19;4375536;32;35596;-76
2021/05/15 12:17:51;;;;;;;;;;;;;;;25.94;29.94;99168.84;4373357;32;33803;-76
2021/05/15 12:20:32;;;;;;;;;;;;;;;25.69;29.19;99174.00;4385353;32;33571;-76
2021/05/15 12:23:03;;;;;;;;;;;;;;;23.91;31.77;99180.03;4388627;32;34265;-76
2021/05/15 12:25:32;;;;;;;;;;;;;;;23.90;32.19;99178.37;4370430;32;35432;-77
2021/05/15 12:28:17;;;;;;;;;;;;;;;23.55;33.21;99176.88;4361003;32;35713;-77
2021/05/15 12:30:45;;;;;;;;;;;;;;;24.33;32.57;99167.72;4382690;32;33188;-77
2021/05/15 12:33:28;;;;;;;;;;;;;;;24.49;31.63;99163.34;4377543;32;33743;-76
2021/05/15 12:35:56;;;;;;;;;;;;;;;23.28;33.96;99164.06;4385887;32;34824;-75
2021/05/15 12:38:25;;;;;;;;;;;;;;;24.36;34.11;99169.13;4370402;32;34156;-76
2021/05/15 12:40:53;;;;;;;;;;;;;;;24.60;32.63;99167.91;4381784;32;32915;-76
2021/05/15 12:43:23;;;;;;;;;;;;;;;24.57;32.31;99158.31;4368716;32;34666;-76
2021/05/15 12:45:52;;;;;;;;;;;;;;;23.60;33.06;99157.94;4370207;32;35017;-76
2021/05/15 12:48:21;;;;;;;;;;;;;;;23.58;32.31;99162.78;4383540;32;34531;-76
2021/05/15 12:50:50;;;;;;;;;;;;;;;22.83;33.08;99157.66;4397471;32;32882;-85
2021/05/15 12:53:19;;;;;;;;;;;;;;;22.98;33.42;99160.69;4384583;32;33385;-76